createdAt,value
2022-10-26T00:00:34.092Z,12.34
2022-10-26T00:03:01.978Z,12.32
2022-10-26T00:05:29.639Z,12.29
2022-10-26T00:07:57.533Z,12.32
2022-10-26T00:10:27.213Z,12.30
2022-10-26T00:12:58.620Z,12.27
2022-10-26T00:15:26.399Z,12.24
2022-10-26T00:17:54.137Z,12.21
2022-10-26T00:20:21.904Z,12.21
2022-10-26T00:22:49.787Z,12.21
2022-10-26T00:25:17.729Z,12.32
2022-10-26T00:27:45.499Z,12.28
2022-10-26T00:30:14.802Z,12.22
2022-10-26T00:32:42.772Z,12.20
2022-10-26T00:35:21.443Z,12.21
2022-10-26T00:37:55.790Z,12.22
2022-10-26T00:40:28.353Z,12.26
2022-10-26T00:42:56.033Z,12.23
2022-10-26T00:45:28.196Z,12.26
2022-10-26T00:47:59.544Z,12.28
2022-10-26T00:50:33.412Z,12.25
2022-10-26T00:53:03.511Z,12.27
2022-10-26T00:55:34.000Z,12.20
2022-10-26T00:58:04.328Z,12.19
2022-10-26T01:00:33.741Z,12.23
2022-10-26T01:03:05.945Z,12.23
2022-10-26T01:05:36.270Z,12.20
2022-10-26T01:08:04.367Z,12.19
2022-10-26T01:10:33.128Z,12.20
2022-10-26T01:13:01.786Z,12.22
2022-10-26T01:15:37.929Z,12.24
2022-10-26T01:18:12.678Z,12.18
2022-10-26T01:21:00.772Z,12.18
2022-10-26T01:23:35.997Z,12.20
2022-10-26T01:26:29.423Z,12.24
2022-10-26T01:29:43.202Z,12.13
2022-10-26T01:32:16.231Z,12.18
2022-10-26T01:34:49.714Z,12.23
2022-10-26T01:37:22.711Z,12.26
2022-10-26T01:39:55.598Z,12.30
2022-10-26T01:42:25.179Z,12.24
2022-10-26T01:44:57.398Z,12.26
2022-10-26T01:47:28.593Z,12.20
2022-10-26T01:49:59.908Z,12.22
2022-10-26T01:52:28.610Z,12.25
2022-10-26T01:55:01.984Z,12.21
2022-10-26T01:57:34.839Z,12.18
2022-10-26T02:00:07.731Z,12.20
2022-10-26T02:03:00.251Z,12.23
2022-10-26T02:05:49.334Z,12.22
2022-10-26T02:08:49.379Z,12.26
2022-10-26T02:11:26.910Z,12.27
2022-10-26T02:14:01.932Z,12.21
2022-10-26T02:16:38.935Z,12.20
2022-10-26T02:19:13.691Z,12.26
2022-10-26T02:21:49.423Z,12.26
2022-10-26T02:24:18.745Z,12.26
2022-10-26T02:26:49.218Z,12.26
2022-10-26T02:29:19.214Z,12.24
2022-10-26T02:31:49.633Z,12.22
2022-10-26T02:34:25.037Z,12.22
2022-10-26T02:36:56.747Z,12.18
2022-10-26T02:39:26.295Z,12.17
2022-10-26T02:41:55.960Z,12.19
2022-10-26T02:44:27.907Z,12.12
2022-10-26T02:46:56.667Z,12.12
2022-10-26T02:49:26.039Z,12.10
2022-10-26T02:52:02.353Z,12.13
2022-10-26T02:54:43.081Z,12.15
2022-10-26T02:57:16.073Z,12.17
2022-10-26T02:59:47.510Z,12.19
2022-10-26T03:02:17.741Z,12.16
2022-10-26T03:04:46.833Z,12.23
2022-10-26T03:07:14.643Z,12.21
2022-10-26T03:09:42.724Z,12.23
2022-10-26T03:12:10.802Z,12.24
2022-10-26T03:14:38.468Z,12.25
2022-10-26T03:17:06.192Z,12.28
2022-10-26T03:19:34.156Z,12.31
2022-10-26T03:22:03.271Z,12.27
2022-10-26T03:24:31.134Z,12.22
2022-10-26T03:27:01.247Z,12.24
2022-10-26T03:29:30.114Z,12.20
2022-10-26T03:31:57.766Z,12.22
2022-10-26T03:34:25.539Z,12.28
2022-10-26T03:36:53.209Z,12.25
2022-10-26T03:39:22.267Z,12.22
2022-10-26T03:41:50.014Z,12.22
2022-10-26T03:44:17.935Z,12.20
2022-10-26T03:46:46.047Z,12.22
2022-10-26T03:49:13.959Z,12.18
2022-10-26T03:51:41.658Z,12.16
2022-10-26T03:54:09.680Z,12.11
2022-10-26T03:56:38.866Z,12.12
2022-10-26T03:59:06.586Z,12.08
2022-10-26T04:01:34.440Z,12.08
2022-10-26T04:04:02.455Z,12.09
2022-10-26T04:06:30.145Z,12.05
2022-10-26T04:09:02.270Z,12.05
2022-10-26T04:11:30.471Z,12.01
2022-10-26T04:14:00.722Z,11.98
2022-10-26T04:16:31.167Z,11.94
2022-10-26T04:19:01.842Z,11.93
2022-10-26T04:21:32.654Z,11.93
2022-10-26T04:24:00.394Z,11.86
2022-10-26T04:26:28.061Z,11.91
2022-10-26T04:28:55.735Z,11.94
2022-10-26T04:31:24.722Z,11.92
2022-10-26T04:33:53.778Z,11.93
2022-10-26T04:36:21.487Z,11.98
2022-10-26T04:38:50.213Z,12.00
2022-10-26T04:41:17.912Z,12.09
2022-10-26T04:43:45.770Z,12.06
2022-10-26T04:46:16.740Z,12.07
2022-10-26T04:48:46.455Z,12.02
2022-10-26T04:51:14.074Z,12.02
2022-10-26T04:53:41.866Z,12.04
2022-10-26T04:56:10.227Z,12.04
2022-10-26T04:58:37.999Z,11.99
2022-10-26T05:01:06.086Z,12.01
2022-10-26T05:03:34.320Z,12.05
2022-10-26T05:06:03.331Z,12.07
2022-10-26T05:08:31.063Z,12.04
2022-10-26T05:10:58.730Z,11.99
2022-10-26T05:15:55.296Z,12.00
2022-10-26T05:18:23.038Z,11.94
2022-10-26T05:20:53.940Z,11.89
2022-10-26T05:23:23.506Z,11.92
2022-10-26T05:25:51.500Z,11.96
2022-10-26T05:28:19.848Z,11.98
2022-10-26T05:30:48.150Z,12.02
2022-10-26T05:33:16.045Z,12.00
2022-10-26T05:35:44.077Z,11.94
2022-10-26T05:38:14.028Z,11.98
2022-10-26T05:40:49.862Z,12.05
2022-10-26T05:43:18.319Z,12.06
2022-10-26T05:45:46.296Z,12.09
2022-10-26T05:48:14.328Z,12.11
2022-10-26T05:50:42.240Z,12.13
2022-10-26T05:53:10.129Z,12.17
2022-10-26T05:55:38.588Z,12.15
2022-10-26T05:58:11.656Z,12.20
2022-10-26T06:00:51.604Z,12.20
2022-10-26T06:06:00.698Z,12.23
2022-10-26T06:08:30.853Z,12.23
2022-10-26T06:11:01.521Z,12.21
2022-10-26T06:13:31.217Z,12.26
2022-10-26T06:16:15.679Z,12.20
2022-10-26T06:18:57.073Z,12.22
2022-10-26T06:21:42.378Z,12.25
2022-10-26T06:24:17.638Z,12.26
2022-10-26T06:26:56.538Z,12.25
2022-10-26T06:29:38.327Z,12.33
2022-10-26T06:32:06.168Z,12.36
2022-10-26T06:34:36.796Z,12.37
2022-10-26T06:37:06.083Z,12.38
2022-10-26T06:39:39.938Z,12.43
2022-10-26T06:42:10.355Z,12.44
2022-10-26T06:44:40.312Z,12.48
2022-10-26T06:47:12.215Z,12.53
2022-10-26T06:49:43.797Z,12.54
2022-10-26T06:52:17.432Z,12.52
2022-10-26T06:54:49.479Z,12.54
2022-10-26T06:57:18.928Z,12.57
2022-10-26T06:59:51.590Z,12.65
2022-10-26T07:02:20.345Z,12.67
2022-10-26T07:04:48.559Z,12.68
2022-10-26T07:07:19.053Z,12.71
2022-10-26T07:09:47.017Z,12.75
2022-10-26T07:12:15.291Z,12.77
2022-10-26T07:14:43.178Z,12.78
2022-10-26T07:17:13.238Z,12.81
2022-10-26T07:19:42.824Z,12.76
2022-10-26T07:22:11.197Z,12.73
2022-10-26T07:24:39.095Z,12.76
2022-10-26T07:27:06.930Z,12.77
2022-10-26T07:29:35.544Z,12.77
2022-10-26T07:32:04.253Z,12.81
2022-10-26T07:34:33.442Z,12.82
2022-10-26T07:37:02.425Z,12.85
2022-10-26T07:39:32.651Z,12.87
2022-10-26T07:42:00.439Z,12.92
2022-10-26T07:44:28.102Z,12.96
2022-10-26T07:46:55.819Z,12.97
2022-10-26T07:49:26.212Z,13.01
2022-10-26T07:51:57.230Z,13.05
2022-10-26T07:54:25.194Z,13.10
2022-10-26T07:56:52.883Z,13.12
2022-10-26T07:59:20.786Z,13.12
2022-10-26T08:01:49.004Z,13.17
2022-10-26T08:04:16.878Z,13.20
2022-10-26T08:06:44.762Z,13.24
2022-10-26T08:09:14.079Z,13.33
2022-10-26T08:11:41.993Z,13.41
2022-10-26T08:14:12.171Z,13.47
2022-10-26T08:16:40.859Z,13.54
2022-10-26T08:19:09.652Z,13.72
2022-10-26T08:21:40.069Z,13.88
2022-10-26T08:24:08.879Z,13.86
2022-10-26T08:26:38.013Z,13.79
2022-10-26T08:29:05.899Z,13.79
2022-10-26T08:31:33.749Z,13.95
2022-10-26T08:34:01.775Z,14.13
2022-10-26T08:36:30.534Z,14.32
2022-10-26T08:41:36.191Z,14.46
2022-10-26T08:44:13.984Z,14.55
2022-10-26T08:46:47.543Z,14.57
2022-10-26T08:49:21.728Z,14.63
2022-10-26T08:51:53.011Z,14.65
2022-10-26T08:54:27.239Z,14.72
2022-10-26T08:56:59.348Z,14.76
2022-10-26T08:59:35.600Z,14.83
2022-10-26T09:02:03.857Z,14.93
2022-10-26T09:04:34.194Z,14.98
2022-10-26T09:07:11.359Z,15.13
2022-10-26T09:09:47.761Z,15.23
2022-10-26T09:12:25.279Z,15.33
2022-10-26T09:15:06.266Z,15.36
2022-10-26T09:17:44.151Z,15.40
2022-10-26T09:20:40.373Z,15.40
2022-10-26T09:23:19.512Z,15.50
2022-10-26T09:25:52.232Z,15.43
2022-10-26T09:28:20.611Z,15.44
2022-10-26T09:30:49.969Z,15.43
2022-10-26T09:33:20.301Z,15.32
2022-10-26T09:35:52.584Z,15.33
2022-10-26T09:38:26.231Z,15.28
2022-10-26T09:40:59.323Z,15.32
2022-10-26T09:43:33.134Z,15.45
2022-10-26T09:46:02.436Z,15.76
2022-10-26T09:48:37.421Z,15.89
2022-10-26T09:51:05.298Z,15.81
2022-10-26T09:53:33.246Z,15.83
2022-10-26T09:56:07.052Z,16.00
2022-10-26T09:58:39.528Z,16.31
2022-10-26T10:01:09.182Z,16.38
2022-10-26T10:03:36.966Z,16.39
2022-10-26T10:06:17.663Z,16.43
2022-10-26T10:09:05.091Z,16.66
2022-10-26T10:11:39.792Z,16.92
2022-10-26T10:14:09.997Z,17.12
2022-10-26T10:16:39.777Z,17.23
2022-10-26T10:19:07.610Z,17.37
2022-10-26T10:21:37.861Z,17.44
2022-10-26T10:24:24.382Z,17.66
2022-10-26T10:27:03.764Z,17.87
2022-10-26T10:29:33.018Z,18.05
2022-10-26T10:32:03.934Z,18.12
2022-10-26T10:34:32.988Z,18.14
2022-10-26T10:37:02.438Z,18.16
2022-10-26T10:39:41.725Z,18.24
2022-10-26T10:42:19.679Z,18.16
2022-10-26T10:44:52.138Z,18.26
2022-10-26T10:47:25.032Z,18.22
2022-10-26T10:49:54.658Z,18.24
2022-10-26T10:52:29.450Z,18.20
2022-10-26T10:55:10.087Z,18.18
2022-10-26T10:57:46.278Z,18.21
2022-10-26T11:00:14.524Z,18.20
2022-10-26T11:03:03.528Z,18.28
2022-10-26T11:05:49.653Z,18.25
2022-10-26T11:08:24.652Z,18.28
2022-10-26T11:10:59.228Z,18.24
2022-10-26T11:13:32.259Z,18.18
2022-10-26T11:16:04.232Z,18.28
2022-10-26T11:18:37.752Z,18.49
2022-10-26T11:21:15.138Z,18.45
2022-10-26T11:23:49.694Z,18.41
2022-10-26T11:26:25.555Z,18.47
2022-10-26T11:28:59.827Z,18.48
2022-10-26T11:31:32.666Z,18.37
2022-10-26T11:34:13.537Z,18.32
2022-10-26T11:36:45.161Z,18.22
2022-10-26T11:39:21.376Z,18.15
2022-10-26T11:41:52.160Z,18.13
2022-10-26T11:44:25.668Z,18.07
2022-10-26T11:46:57.770Z,18.08
2022-10-26T11:49:32.269Z,18.14
2022-10-26T11:52:06.053Z,18.21
2022-10-26T11:54:36.976Z,18.29
2022-10-26T11:57:06.151Z,18.34
2022-10-26T11:59:38.578Z,18.37
2022-10-26T12:02:15.511Z,18.40
2022-10-26T12:04:48.369Z,18.43
2022-10-26T12:07:21.431Z,18.59
2022-10-26T12:09:49.263Z,18.60
2022-10-26T12:12:24.923Z,18.72
2022-10-26T12:15:04.418Z,18.81
2022-10-26T12:17:40.043Z,18.87
2022-10-26T12:20:26.485Z,18.94
2022-10-26T12:22:54.648Z,18.96
2022-10-26T12:25:23.347Z,19.23
2022-10-26T12:27:54.237Z,19.33
2022-10-26T12:30:30.623Z,19.44
2022-10-26T12:33:01.064Z,19.40
2022-10-26T12:35:47.742Z,19.26
2022-10-26T12:38:49.640Z,19.07
2022-10-26T12:41:25.694Z,19.09
2022-10-26T12:43:58.789Z,19.10
2022-10-26T12:46:41.920Z,19.22
2022-10-26T12:49:45.773Z,19.33
2022-10-26T12:52:24.092Z,19.44
2022-10-26T12:55:19.113Z,19.48
2022-10-26T12:57:58.003Z,19.58
2022-10-26T13:00:28.850Z,19.55
2022-10-26T13:03:14.664Z,19.49
2022-10-26T13:06:14.859Z,19.50
2022-10-26T13:08:47.265Z,19.57
2022-10-26T13:11:19.541Z,19.63
2022-10-26T13:13:55.549Z,19.51
2022-10-26T13:16:27.554Z,19.70
2022-10-26T13:18:55.850Z,19.70
2022-10-26T13:21:25.571Z,19.59
2022-10-26T13:24:02.277Z,19.54
2022-10-26T13:26:33.086Z,19.63
2022-10-26T13:29:01.936Z,19.52
2022-10-26T13:31:58.471Z,19.41
2022-10-26T13:34:30.127Z,19.30
2022-10-26T13:37:06.337Z,19.38
2022-10-26T13:39:39.293Z,19.40
2022-10-26T13:42:09.142Z,19.33
2022-10-26T13:44:43.349Z,19.39
2022-10-26T13:47:15.566Z,19.46
2022-10-26T13:49:47.018Z,19.43
2022-10-26T13:52:17.803Z,19.50
2022-10-26T13:54:49.901Z,19.36
2022-10-26T13:57:22.299Z,19.48
2022-10-26T13:59:49.925Z,19.54
2022-10-26T14:02:24.762Z,19.51
2022-10-26T14:05:01.324Z,19.44
2022-10-26T14:07:37.498Z,19.52
2022-10-26T14:10:07.253Z,19.57
2022-10-26T14:12:35.648Z,19.57
2022-10-26T14:15:08.504Z,19.58
2022-10-26T14:17:36.699Z,19.50
2022-10-26T14:20:05.640Z,19.56
2022-10-26T14:22:33.587Z,19.54
2022-10-26T14:25:02.595Z,19.49
2022-10-26T14:27:39.196Z,19.69
2022-10-26T14:30:23.571Z,19.43
2022-10-26T14:32:52.785Z,19.31
2022-10-26T14:35:23.754Z,19.27
2022-10-26T14:37:57.051Z,19.31
2022-10-26T14:40:27.544Z,19.30
2022-10-26T14:42:59.074Z,19.28
2022-10-26T14:45:49.236Z,19.22
2022-10-26T14:48:26.184Z,19.23
2022-10-26T14:51:05.158Z,19.09
2022-10-26T14:53:37.613Z,18.97
2022-10-26T14:56:07.396Z,19.12
2022-10-26T14:58:37.686Z,19.09
2022-10-26T15:01:16.869Z,19.36
2022-10-26T15:03:45.940Z,19.16
2022-10-26T15:06:23.985Z,19.06
2022-10-26T15:08:57.230Z,18.90
2022-10-26T15:11:25.841Z,18.90
2022-10-26T15:13:56.583Z,18.80
2022-10-26T15:16:26.428Z,18.73
2022-10-26T15:18:57.473Z,18.73
2022-10-26T15:21:27.427Z,18.79
2022-10-26T15:23:57.174Z,18.59
2022-10-26T15:26:26.826Z,18.53
2022-10-26T15:28:56.607Z,18.24
2022-10-26T15:31:35.505Z,18.09
2022-10-26T15:34:15.579Z,17.91
2022-10-26T15:36:44.863Z,17.80
2022-10-26T15:39:12.590Z,17.65
2022-10-26T15:41:46.890Z,17.57
2022-10-26T15:44:19.100Z,17.47
2022-10-26T15:46:46.913Z,17.41
2022-10-26T15:49:19.907Z,17.41
2022-10-26T15:51:49.140Z,17.36
2022-10-26T15:54:17.118Z,17.22
2022-10-26T15:56:45.312Z,17.11
2022-10-26T15:59:17.934Z,16.98
2022-10-26T16:01:46.345Z,16.90
2022-10-26T16:04:14.425Z,16.81
2022-10-26T16:06:43.374Z,16.68
2022-10-26T16:09:15.656Z,16.63
2022-10-26T16:11:43.616Z,16.64
2022-10-26T16:14:12.931Z,16.56
2022-10-26T16:16:42.146Z,16.50
2022-10-26T16:19:30.426Z,16.49
2022-10-26T16:21:58.911Z,16.48
2022-10-26T16:24:27.358Z,16.49
2022-10-26T16:26:55.546Z,16.65
2022-10-26T16:29:23.903Z,16.62
2022-10-26T16:31:52.923Z,16.73
2022-10-26T16:34:20.828Z,16.74
2022-10-26T16:36:48.692Z,16.76
2022-10-26T16:39:16.652Z,16.57
2022-10-26T16:41:44.689Z,16.42
2022-10-26T16:44:12.735Z,16.29
2022-10-26T16:46:40.992Z,16.16
2022-10-26T16:49:10.095Z,16.15
2022-10-26T16:51:38.007Z,16.13
2022-10-26T16:54:06.613Z,16.10
2022-10-26T16:56:34.533Z,16.15
2022-10-26T16:59:02.175Z,16.06
2022-10-26T17:01:29.954Z,16.00
2022-10-26T17:03:57.762Z,15.98
2022-10-26T17:06:27.090Z,15.92
2022-10-26T17:08:54.751Z,15.92
2022-10-26T17:11:23.035Z,16.04
2022-10-26T17:13:55.209Z,15.99
2022-10-26T17:16:25.024Z,15.88
2022-10-26T17:18:53.464Z,15.80
2022-10-26T17:21:31.343Z,15.74
2022-10-26T17:23:59.503Z,15.73
2022-10-26T17:26:27.672Z,15.69
2022-10-26T17:28:57.626Z,15.70
2022-10-26T17:31:26.386Z,15.66
2022-10-26T17:33:54.376Z,15.63
2022-10-26T17:36:23.935Z,15.59
2022-10-26T17:38:55.140Z,15.56
2022-10-26T17:41:23.719Z,15.53
2022-10-26T17:43:52.406Z,15.51
2022-10-26T17:46:22.795Z,15.54
2022-10-26T17:48:54.607Z,15.54
2022-10-26T17:51:22.828Z,15.51
2022-10-26T17:53:51.872Z,15.47
2022-10-26T17:56:22.782Z,15.44
2022-10-26T17:58:55.076Z,15.42
2022-10-26T18:01:23.930Z,15.44
2022-10-26T18:03:52.530Z,15.46
2022-10-26T18:06:20.862Z,15.41
2022-10-26T18:08:48.764Z,15.39
2022-10-26T18:11:23.882Z,15.39
2022-10-26T18:13:56.382Z,15.53
2022-10-26T18:16:27.647Z,15.73
2022-10-26T18:19:00.691Z,16.02
2022-10-26T18:21:30.312Z,16.15
2022-10-26T18:23:58.116Z,16.15
2022-10-26T18:26:28.370Z,16.15
2022-10-26T18:28:58.486Z,16.04
2022-10-26T18:31:27.774Z,15.93
2022-10-26T18:33:57.398Z,15.93
2022-10-26T18:36:26.063Z,15.80
2022-10-26T18:38:54.857Z,15.82
2022-10-26T18:41:24.881Z,15.91
2022-10-26T18:43:55.114Z,15.68
2022-10-26T18:46:27.390Z,15.57
2022-10-26T18:48:55.732Z,15.48
2022-10-26T18:51:26.371Z,15.45
2022-10-26T18:53:54.117Z,15.41
2022-10-26T18:56:24.210Z,15.35
2022-10-26T18:58:54.666Z,15.36
2022-10-26T19:01:26.032Z,15.30
2022-10-26T19:03:55.522Z,15.30
2022-10-26T19:06:25.410Z,15.28
2022-10-26T19:08:54.382Z,15.26
2022-10-26T19:11:24.164Z,15.21
2022-10-26T19:13:52.848Z,15.14
2022-10-26T19:16:40.664Z,15.05
2022-10-26T19:19:11.599Z,14.98
2022-10-26T19:21:39.465Z,14.96
2022-10-26T19:24:14.097Z,14.94
2022-10-26T19:26:43.772Z,14.91
2022-10-26T19:29:15.367Z,14.92
2022-10-26T19:31:44.316Z,14.83
2022-10-26T19:34:14.510Z,14.61
2022-10-26T19:36:45.221Z,14.34
2022-10-26T19:39:14.023Z,14.27
2022-10-26T19:41:41.831Z,14.17
2022-10-26T19:44:11.992Z,14.17
2022-10-26T19:46:40.321Z,14.14
2022-10-26T19:49:08.739Z,14.17
2022-10-26T19:51:37.927Z,14.23
2022-10-26T19:54:07.414Z,14.26
2022-10-26T19:56:37.508Z,14.04
2022-10-26T19:59:05.876Z,13.93
2022-10-26T20:01:34.512Z,13.88
2022-10-26T20:04:02.950Z,13.79
2022-10-26T20:06:31.615Z,13.77
2022-10-26T20:09:02.593Z,13.79
2022-10-26T20:11:32.403Z,13.77
2022-10-26T20:14:00.665Z,13.82
2022-10-26T20:16:28.676Z,13.77
2022-10-26T20:18:56.588Z,13.78
2022-10-26T20:21:24.832Z,13.79
2022-10-26T20:23:52.846Z,13.89
2022-10-26T20:26:23.365Z,13.92
2022-10-26T20:28:53.014Z,13.91
2022-10-26T20:31:20.813Z,13.84
2022-10-26T20:33:51.822Z,13.77
2022-10-26T20:36:20.229Z,13.76
2022-10-26T20:38:48.715Z,13.74
2022-10-26T20:41:17.032Z,13.69
2022-10-26T20:43:47.353Z,13.64
2022-10-26T20:46:23.193Z,13.50
2022-10-26T20:48:52.144Z,13.41
2022-10-26T20:51:25.427Z,13.36
2022-10-26T20:54:04.965Z,13.40
2022-10-26T20:56:34.930Z,13.45
2022-10-26T20:59:07.549Z,13.48
2022-10-26T21:01:38.137Z,13.56
2022-10-26T21:04:06.295Z,13.59
2022-10-26T21:06:40.310Z,13.65
2022-10-26T21:09:08.697Z,13.55
2022-10-26T21:11:36.927Z,13.48
2022-10-26T21:14:06.474Z,13.26
2022-10-26T21:16:34.535Z,13.11
2022-10-26T21:19:04.819Z,13.11
2022-10-26T21:21:32.502Z,13.09
2022-10-26T21:24:00.314Z,13.15
2022-10-26T21:26:28.065Z,13.20
2022-10-26T21:28:55.768Z,13.27
2022-10-26T21:31:24.882Z,13.34
2022-10-26T21:33:52.791Z,13.33
2022-10-26T21:36:20.478Z,13.26
2022-10-26T21:38:48.579Z,13.29
2022-10-26T21:41:18.067Z,13.30
2022-10-26T21:43:48.687Z,13.27
2022-10-26T21:46:17.469Z,13.31
2022-10-26T21:48:47.616Z,13.29
2022-10-26T21:51:17.658Z,13.27
2022-10-26T21:53:45.882Z,13.23
2022-10-26T21:56:16.624Z,13.20
2022-10-26T21:58:44.423Z,13.27
2022-10-26T22:01:14.389Z,13.20
2022-10-26T22:03:43.025Z,13.23
2022-10-26T22:06:15.094Z,13.22
2022-10-26T22:08:43.287Z,13.21
2022-10-26T22:11:15.333Z,13.12
2022-10-26T22:13:43.504Z,13.10
2022-10-26T22:16:13.755Z,13.07
2022-10-26T22:18:43.076Z,13.09
2022-10-26T22:21:11.762Z,13.10
2022-10-26T22:23:42.181Z,13.00
2022-10-26T22:26:12.114Z,12.97
2022-10-26T22:28:43.004Z,12.98
2022-10-26T22:31:13.689Z,13.05
2022-10-26T22:33:41.543Z,13.03
2022-10-26T22:36:11.673Z,13.01
2022-10-26T22:38:41.038Z,12.96
2022-10-26T22:41:09.968Z,12.73
2022-10-26T22:43:38.314Z,12.78
2022-10-26T22:46:08.404Z,12.90
2022-10-26T22:48:36.967Z,12.96
2022-10-26T22:51:08.201Z,13.03
2022-10-26T22:53:35.835Z,12.96
2022-10-26T22:56:06.011Z,12.93
2022-10-26T22:58:33.902Z,12.86
2022-10-26T23:01:05.418Z,12.84
2022-10-26T23:03:33.759Z,12.93
2022-10-26T23:06:02.012Z,12.99
2022-10-26T23:08:30.725Z,13.03
2022-10-26T23:11:02.661Z,12.97
2022-10-26T23:13:31.883Z,13.00
2022-10-26T23:16:06.136Z,13.06
2022-10-26T23:18:34.416Z,13.07
2022-10-26T23:21:02.891Z,13.07
2022-10-26T23:23:31.038Z,13.06
2022-10-26T23:26:01.102Z,13.02
2022-10-26T23:28:28.891Z,13.04
2022-10-26T23:30:58.406Z,13.13
2022-10-26T23:33:26.365Z,13.15
2022-10-26T23:35:54.661Z,13.11
2022-10-26T23:38:22.400Z,13.06
2022-10-26T23:40:51.635Z,12.82
2022-10-26T23:43:20.066Z,12.49
2022-10-26T23:45:48.474Z,12.59
2022-10-26T23:48:19.385Z,12.78
2022-10-26T23:50:49.255Z,12.91
2022-10-26T23:53:19.186Z,12.41
2022-10-26T23:55:47.610Z,12.19
2022-10-26T23:58:16.707Z,12.08
